Share

Austin, NV

9:40 AM PDT on April 24, 2014 (GMT -0700)
RAWS AUSTIN NV US (MAFSN2) Elev 6310 ft | 39.50 °N, 117.08 °W | Change Station
Active Advisory: Winter Storm Watch

Current weather conditions updated 50 minutes ago

Mostly Cloudy
Mostly Cloudy
52 °F
Feels Like 52 °F
N
6
Wind Variable Wind from WSW
Gusts 11.0 mph
Sunrise 5:58 AM
Sunset 7:36 PM
Moon Waning Crescent

Today is forecast to be Warmer than yesterday. Showers tonight.

Pressure 29.97 in
Visibility -9999.0 miles
Clouds
Dew Point 20 °F
Humidity 28%
Rainfall 0.00 in
Snow Depth Not available.
UV Not available.
Pollen 9.30 out of 12
Air Quality Not available.
Flu Activity Sporadic
METAR KP68 241553Z AUTO 00000KT 10/M09 A3006 RMK AO1 SLP147 T01001089

More Conditions Fewer Conditions

Pressure 29.97 in
Visibility -9999.0 miles
Clouds
Dew Point 20 °F
Humidity 28%
Rainfall 0.00 in
Snow Depth Not available.
UV Not available.
Pollen 9.30 out of 12
Air Quality Not available.
Flu Activity Sporadic
METAR KP68 241553Z AUTO 00000KT 10/M09 A3006 RMK AO1 SLP147 T01001089

More Conditions Fewer Conditions

10-Day Weather Forecast

Almanac

Astronomy

Apr. 24, 2014 Rise Set
Actual Time 5:58 AM PDT 7:36 PM PDT
Civil Twilight 5:29 AM PDT 8:04 PM PDT
Nautical Twilight 4:55 AM PDT 8:39 PM PDT
Astronomical Twilight 4:18 AM PDT 9:16 PM PDT
Moon 3:11 AM PDT 2:57 PM PDT
Length of Visible Light 14h 35m
Length of Day
13h 37m
Tomorrow will be 2m 21s longer.
Waning Crescent, 24% of the Moon is Illuminated
Today
Waning Crescent
Apr 29
New
May 6
First Quarter
May 14
Full
May 21
Last Quarter

Today's Extremes

State Highs State Lows

Community

  • Sunset at Apalachicola Bay, Florida
    Sunset at Apalachicola Bay, Florida
  • Clouds mov'n in
    Clouds mov'n in
  • Stacked
    Stacked
  • clouds approaching Red Sox Nation
    clouds approaching Red Sox Nation
  • Balance
    Balance

WunderPhotos

Upload Photos

1,704,660 photos uploaded!

Nearby

Snow Depth

Station Depth Elevation
Big Creek Summit 30 in 8700 ft
Lewis Peak 0 in 7400 ft
Diamond Peak 1 in 8000 ft
Corral Canyon 42 in 8500 ft
Green Mountain 11 in 8000 ft

Coastal Water Temperatures

Place Temperature
No Stations Reporting

Earthquake Activity

City Distance Mag. Time & Date
Currant, Nevada 98 miles 3.3 2:41 AM PDT
2014-04-18
Currant, Nevada 107 miles 2.8 4:04 PM PDT
2014-04-17
Carlin, Nevada 88 miles 2.5 10:07 AM PDT
2014-04-17
Minimum magnitude displayed is 2.5.

Nearby Weather Stations

Station Location Temp. Windchill Dew Point Humidity Wind Precip. Elev Updated Type
RAWS AUSTIN NV, Austin, NV 52 °F - 20 °F 28% WSW  at  6 mph 0.00 in / hr 6310 ft 8:50 AM PDT MADIS
MesoWest AUSTIN SUMMIT , Austin, NV 47 °F 41 °F 19 °F 33% SSW  at  15 mph 0.00 in / hr 7493 ft 8:50 AM PDT MADIS

Show More Stations Show Fewer Stations

What do you think?

We're not finished. Please let us know what you like, what you don't like, and what you are still missing.